sensor_id;sensor_type;location;lat;lon;timestamp;pressure;altitude;pressure_sealevel;temperature;humidity
7309;BME280;3695;53.330;9.876;2023-03-23T00:01:38;101640.72;;;10.26;100.00
7309;BME280;3695;53.330;9.876;2023-03-23T00:04:05;101724.63;;;10.20;100.00
7309;BME280;3695;53.330;9.876;2023-03-23T00:06:32;101781.53;;;10.20;100.00
7309;BME280;3695;53.330;9.876;2023-03-23T00:09:00;101584.34;;;10.15;100.00
7309;BME280;3695;53.330;9.876;2023-03-23T00:11:32;101282.69;;;10.23;100.00
7309;BME280;3695;53.330;9.876;2023-03-23T00:14:00;101112.22;;;10.15;100.00
7309;BME280;3695;53.330;9.876;2023-03-23T00:16:29;100990.56;;;10.13;100.00
7309;BME280;3695;53.330;9.876;2023-03-23T00:18:58;101068.25;;;10.19;100.00
7309;BME280;3695;53.330;9.876;2023-03-23T00:21:27;101138.03;;;10.10;100.00
7309;BME280;3695;53.330;9.876;2023-03-23T00:24:01;101242.22;;;10.15;100.00
7309;BME280;3695;53.330;9.876;2023-03-23T00:26:28;101321.38;;;10.10;100.00
7309;BME280;3695;53.330;9.876;2023-03-23T00:29:00;101408.47;;;10.14;100.00
7309;BME280;3695;53.330;9.876;2023-03-23T00:31:27;101470.13;;;10.12;100.00
7309;BME280;3695;53.330;9.876;2023-03-23T00:33:58;101550.38;;;10.13;100.00
7309;BME280;3695;53.330;9.876;2023-03-23T00:36:26;101735.59;;;10.12;100.00
7309;BME280;3695;53.330;9.876;2023-03-23T00:38:54;101866.63;;;10.10;100.00
7309;BME280;3695;53.330;9.876;2023-03-23T00:41:23;101981.44;;;10.09;100.00
7309;BME280;3695;53.330;9.876;2023-03-23T00:43:52;102054.94;;;10.06;100.00
7309;BME280;3695;53.330;9.876;2023-03-23T00:46:20;102157.22;;;10.04;100.00
7309;BME280;3695;53.330;9.876;2023-03-23T00:48:46;102243.56;;;10.07;100.00
7309;BME280;3695;53.330;9.876;2023-03-23T00:51:13;102304.16;;;10.06;100.00
7309;BME280;3695;53.330;9.876;2023-03-23T00:53:40;102453.84;;;10.08;100.00
7309;BME280;3695;53.330;9.876;2023-03-23T00:56:07;102519.88;;;10.07;100.00
7309;BME280;3695;53.330;9.876;2023-03-23T00:58:34;102553.56;;;10.05;100.00
7309;BME280;3695;53.330;9.876;2023-03-23T01:01:01;102603.00;;;10.07;100.00
7309;BME280;3695;53.330;9.876;2023-03-23T01:03:29;102607.25;;;10.09;100.00
7309;BME280;3695;53.330;9.876;2023-03-23T01:05:56;102601.81;;;10.09;100.00
7309;BME280;3695;53.330;9.876;2023-03-23T01:08:23;102630.09;;;10.07;100.00
7309;BME280;3695;53.330;9.876;2023-03-23T01:10:50;102663.47;;;10.07;100.00
7309;BME280;3695;53.330;9.876;2023-03-23T01:13:16;102686.00;;;10.08;100.00
7309;BME280;3695;53.330;9.876;2023-03-23T01:15:43;102653.31;;;10.09;100.00
7309;BME280;3695;53.330;9.876;2023-03-23T01:18:10;102659.06;;;10.06;100.00
7309;BME280;3695;53.330;9.876;2023-03-23T01:20:37;102805.72;;;10.12;100.00
7309;BME280;3695;53.330;9.876;2023-03-23T01:23:04;102818.56;;;10.09;100.00
7309;BME280;3695;53.330;9.876;2023-03-23T01:25:34;102840.91;;;10.03;100.00
7309;BME280;3695;53.330;9.876;2023-03-23T01:28:01;102880.91;;;10.09;100.00
7309;BME280;3695;53.330;9.876;2023-03-23T01:30:28;102855.31;;;10.04;100.00
7309;BME280;3695;53.330;9.876;2023-03-23T01:32:55;102875.97;;;10.05;100.00
7309;BME280;3695;53.330;9.876;2023-03-23T01:35:22;102930.53;;;10.10;100.00
7309;BME280;3695;53.330;9.876;2023-03-23T01:37:49;102951.00;;;10.04;100.00
7309;BME280;3695;53.330;9.876;2023-03-23T01:40:16;102978.78;;;10.06;100.00
7309;BME280;3695;53.330;9.876;2023-03-23T01:42:42;103018.78;;;10.13;100.00
7309;BME280;3695;53.330;9.876;2023-03-23T01:45:31;103097.66;;;10.09;100.00
7309;BME280;3695;53.330;9.876;2023-03-23T01:48:09;103129.19;;;10.10;100.00
7309;BME280;3695;53.330;9.876;2023-03-23T01:50:44;103158.13;;;10.10;100.00
7309;BME280;3695;53.330;9.876;2023-03-23T01:53:14;103201.41;;;10.20;100.00
7309;BME280;3695;53.330;9.876;2023-03-23T01:55:43;103215.59;;;10.14;100.00
7309;BME280;3695;53.330;9.876;2023-03-23T01:58:13;103210.53;;;10.19;100.00
7309;BME280;3695;53.330;9.876;2023-03-23T02:00:41;103249.66;;;10.16;100.00
7309;BME280;3695;53.330;9.876;2023-03-23T02:03:08;103274.47;;;10.21;100.00
7309;BME280;3695;53.330;9.876;2023-03-23T02:05:38;103283.59;;;10.20;100.00
7309;BME280;3695;53.330;9.876;2023-03-23T02:08:07;103279.41;;;10.26;100.00
7309;BME280;3695;53.330;9.876;2023-03-23T02:10:37;103305.81;;;10.24;100.00
7309;BME280;3695;53.330;9.876;2023-03-23T02:13:05;103334.72;;;10.33;100.00
7309;BME280;3695;53.330;9.876;2023-03-23T02:15:39;103320.75;;;10.28;100.00
7309;BME280;3695;53.330;9.876;2023-03-23T02:18:13;103358.41;;;10.31;100.00
7309;BME280;3695;53.330;9.876;2023-03-23T02:21:01;103369.94;;;10.33;100.00
7309;BME280;3695;53.330;9.876;2023-03-23T02:23:45;103378.78;;;10.35;100.00
7309;BME280;3695;53.330;9.876;2023-03-23T02:26:26;103427.28;;;10.38;100.00
7309;BME280;3695;53.330;9.876;2023-03-23T02:29:10;103443.69;;;10.36;100.00
7309;BME280;3695;53.330;9.876;2023-03-23T02:32:04;103440.13;;;10.36;100.00
7309;BME280;3695;53.330;9.876;2023-03-23T02:34:38;103457.53;;;10.43;100.00
7309;BME280;3695;53.330;9.876;2023-03-23T02:37:11;103449.13;;;10.36;100.00
7309;BME280;3695;53.330;9.876;2023-03-23T02:39:43;103468.94;;;10.37;100.00
7309;BME280;3695;53.330;9.876;2023-03-23T02:42:14;103481.22;;;10.41;100.00
7309;BME280;3695;53.330;9.876;2023-03-23T02:44:45;103517.44;;;10.40;100.00
7309;BME280;3695;53.330;9.876;2023-03-23T02:47:15;103532.00;;;10.39;100.00
7309;BME280;3695;53.330;9.876;2023-03-23T02:49:46;103555.00;;;10.35;100.00
7309;BME280;3695;53.330;9.876;2023-03-23T02:52:19;103588.25;;;10.37;100.00
7309;BME280;3695;53.330;9.876;2023-03-23T02:54:48;103600.09;;;10.36;100.00
7309;BME280;3695;53.330;9.876;2023-03-23T02:57:16;103585.38;;;10.38;100.00
7309;BME280;3695;53.330;9.876;2023-03-23T02:59:43;103553.59;;;10.40;100.00
7309;BME280;3695;53.330;9.876;2023-03-23T03:02:12;103555.16;;;10.33;100.00
7309;BME280;3695;53.330;9.876;2023-03-23T03:04:41;103587.69;;;10.43;100.00
7309;BME280;3695;53.330;9.876;2023-03-23T03:07:30;103575.38;;;10.39;100.00
7309;BME280;3695;53.330;9.876;2023-03-23T03:10:01;103601.50;;;10.40;100.00
7309;BME280;3695;53.330;9.876;2023-03-23T03:12:36;103643.31;;;10.37;100.00
7309;BME280;3695;53.330;9.876;2023-03-23T03:15:12;103678.72;;;10.36;100.00
7309;BME280;3695;53.330;9.876;2023-03-23T03:17:45;103665.00;;;10.37;100.00
7309;BME280;3695;53.330;9.876;2023-03-23T03:20:15;103648.59;;;10.39;100.00
7309;BME280;3695;53.330;9.876;2023-03-23T03:22:44;103640.34;;;10.40;100.00
7309;BME280;3695;53.330;9.876;2023-03-23T03:25:13;103579.41;;;10.35;100.00
7309;BME280;3695;53.330;9.876;2023-03-23T03:27:43;103574.13;;;10.43;100.00
7309;BME280;3695;53.330;9.876;2023-03-23T03:30:12;103516.75;;;10.38;100.00
7309;BME280;3695;53.330;9.876;2023-03-23T03:32:43;103511.16;;;10.39;100.00
7309;BME280;3695;53.330;9.876;2023-03-23T03:35:12;103464.38;;;10.37;100.00
7309;BME280;3695;53.330;9.876;2023-03-23T03:37:39;103423.56;;;10.39;100.00
7309;BME280;3695;53.330;9.876;2023-03-23T03:40:10;103394.75;;;10.38;100.00
7309;BME280;3695;53.330;9.876;2023-03-23T03:42:38;103365.22;;;10.35;100.00
7309;BME280;3695;53.330;9.876;2023-03-23T03:45:06;103352.53;;;10.35;100.00
7309;BME280;3695;53.330;9.876;2023-03-23T03:47:33;103343.84;;;10.32;100.00
7309;BME280;3695;53.330;9.876;2023-03-23T03:49:59;103323.72;;;10.34;100.00
7309;BME280;3695;53.330;9.876;2023-03-23T03:52:26;103320.13;;;10.34;100.00
7309;BME280;3695;53.330;9.876;2023-03-23T03:54:54;103300.31;;;10.33;100.00
7309;BME280;3695;53.330;9.876;2023-03-23T03:57:22;103319.13;;;10.35;100.00
7309;BME280;3695;53.330;9.876;2023-03-23T03:59:49;103314.41;;;10.37;100.00
7309;BME280;3695;53.330;9.876;2023-03-23T04:02:16;103307.13;;;10.37;100.00
7309;BME280;3695;53.330;9.876;2023-03-23T04:04:45;103280.59;;;10.41;100.00
7309;BME280;3695;53.330;9.876;2023-03-23T04:07:11;103264.91;;;10.35;100.00
7309;BME280;3695;53.330;9.876;2023-03-23T04:09:38;103249.50;;;10.35;100.00
7309;BME280;3695;53.330;9.876;2023-03-23T04:12:05;103228.66;;;10.36;100.00
7309;BME280;3695;53.330;9.876;2023-03-23T04:14:33;103215.81;;;10.38;100.00
7309;BME280;3695;53.330;9.876;2023-03-23T04:17:00;103205.97;;;10.37;100.00
7309;BME280;3695;53.330;9.876;2023-03-23T04:19:26;103217.50;;;10.39;100.00
7309;BME280;3695;53.330;9.876;2023-03-23T04:21:53;103182.97;;;10.41;100.00
7309;BME280;3695;53.330;9.876;2023-03-23T04:24:20;103148.34;;;10.35;100.00
7309;BME280;3695;53.330;9.876;2023-03-23T04:26:48;103147.19;;;10.37;100.00
7309;BME280;3695;53.330;9.876;2023-03-23T04:29:17;103142.59;;;10.38;100.00
7309;BME280;3695;53.330;9.876;2023-03-23T04:31:45;103105.34;;;10.40;100.00
7309;BME280;3695;53.330;9.876;2023-03-23T04:34:12;103066.78;;;10.46;100.00
7309;BME280;3695;53.330;9.876;2023-03-23T04:36:39;103020.16;;;10.43;100.00
7309;BME280;3695;53.330;9.876;2023-03-23T04:39:06;102958.31;;;10.46;100.00
7309;BME280;3695;53.330;9.876;2023-03-23T04:41:35;102916.13;;;10.44;100.00
7309;BME280;3695;53.330;9.876;2023-03-23T04:44:02;102857.31;;;10.44;100.00
7309;BME280;3695;53.330;9.876;2023-03-23T04:46:29;102813.94;;;10.44;100.00
7309;BME280;3695;53.330;9.876;2023-03-23T04:48:57;102758.53;;;10.47;100.00
7309;BME280;3695;53.330;9.876;2023-03-23T04:51:25;102706.00;;;10.48;100.00
7309;BME280;3695;53.330;9.876;2023-03-23T04:53:52;102646.38;;;10.48;100.00
7309;BME280;3695;53.330;9.876;2023-03-23T04:56:18;102594.53;;;10.43;100.00
7309;BME280;3695;53.330;9.876;2023-03-23T04:58:45;102549.47;;;10.42;100.00
7309;BME280;3695;53.330;9.876;2023-03-23T05:01:12;102520.50;;;10.42;100.00
7309;BME280;3695;53.330;9.876;2023-03-23T05:03:39;102471.00;;;10.40;100.00
7309;BME280;3695;53.330;9.876;2023-03-23T05:06:07;102485.25;;;10.42;100.00
7309;BME280;3695;53.330;9.876;2023-03-23T05:08:34;102478.66;;;10.36;100.00
7309;BME280;3695;53.330;9.876;2023-03-23T05:11:05;102453.75;;;10.41;100.00
7309;BME280;3695;53.330;9.876;2023-03-23T05:13:32;102396.66;;;10.43;100.00
7309;BME280;3695;53.330;9.876;2023-03-23T05:16:03;102376.84;;;10.42;100.00
7309;BME280;3695;53.330;9.876;2023-03-23T05:18:30;102364.13;;;10.43;100.00
7309;BME280;3695;53.330;9.876;2023-03-23T05:20:59;102333.78;;;10.47;100.00
7309;BME280;3695;53.330;9.876;2023-03-23T05:23:27;102292.63;;;10.44;100.00
7309;BME280;3695;53.330;9.876;2023-03-23T05:25:57;102303.94;;;10.47;100.00
7309;BME280;3695;53.330;9.876;2023-03-23T05:28:26;102272.16;;;10.41;100.00
7309;BME280;3695;53.330;9.876;2023-03-23T05:30:52;102259.44;;;10.42;100.00
7309;BME280;3695;53.330;9.876;2023-03-23T05:33:21;102228.59;;;10.43;100.00
7309;BME280;3695;53.330;9.876;2023-03-23T05:35:48;102191.69;;;10.42;100.00
7309;BME280;3695;53.330;9.876;2023-03-23T05:38:14;102113.72;;;10.44;100.00
7309;BME280;3695;53.330;9.876;2023-03-23T05:40:42;101996.72;;;10.55;100.00
7309;BME280;3695;53.330;9.876;2023-03-23T05:43:09;101934.56;;;10.53;100.00
7309;BME280;3695;53.330;9.876;2023-03-23T05:45:35;101649.16;;;10.59;100.00
7309;BME280;3695;53.330;9.876;2023-03-23T05:48:02;101182.91;;;10.59;100.00
7309;BME280;3695;53.330;9.876;2023-03-23T05:50:29;101063.47;;;10.54;100.00
7309;BME280;3695;53.330;9.876;2023-03-23T05:52:55;100942.75;;;10.58;100.00
7309;BME280;3695;53.330;9.876;2023-03-23T05:55:22;100864.59;;;10.55;100.00
7309;BME280;3695;53.330;9.876;2023-03-23T05:57:50;100801.25;;;10.50;100.00
7309;BME280;3695;53.330;9.876;2023-03-23T06:00:17;100741.63;;;10.50;100.00
7309;BME280;3695;53.330;9.876;2023-03-23T06:02:48;100679.94;;;10.52;100.00
7309;BME280;3695;53.330;9.876;2023-03-23T06:05:16;100580.34;;;10.47;100.00
7309;BME280;3695;53.330;9.876;2023-03-23T06:07:43;100518.63;;;10.49;100.00
7309;BME280;3695;53.330;9.876;2023-03-23T06:10:10;100454.50;;;10.43;100.00
7309;BME280;3695;53.330;9.876;2023-03-23T06:12:37;100457.81;;;10.45;100.00
7309;BME280;3695;53.330;9.876;2023-03-23T06:15:06;100366.91;;;10.49;100.00
7309;BME280;3695;53.330;9.876;2023-03-23T06:17:33;100303.91;;;10.54;100.00
7309;BME280;3695;53.330;9.876;2023-03-23T06:20:01;100224.50;;;10.53;100.00
7309;BME280;3695;53.330;9.876;2023-03-23T06:22:29;100219.66;;;10.55;100.00
7309;BME280;3695;53.330;9.876;2023-03-23T06:24:56;100158.31;;;10.61;100.00
7309;BME280;3695;53.330;9.876;2023-03-23T06:27:23;100170.31;;;10.53;100.00
7309;BME280;3695;53.330;9.876;2023-03-23T06:29:49;100137.56;;;10.55;100.00
7309;BME280;3695;53.330;9.876;2023-03-23T06:32:17;100116.94;;;10.65;100.00
7309;BME280;3695;53.330;9.876;2023-03-23T06:34:43;100075.25;;;10.66;100.00
7309;BME280;3695;53.330;9.876;2023-03-23T06:37:11;100050.25;;;10.64;100.00
7309;BME280;3695;53.330;9.876;2023-03-23T06:39:38;99993.00;;;10.61;100.00
7309;BME280;3695;53.330;9.876;2023-03-23T06:42:09;100009.16;;;10.67;100.00
7309;BME280;3695;53.330;9.876;2023-03-23T06:44:35;99944.09;;;10.67;100.00
7309;BME280;3695;53.330;9.876;2023-03-23T06:47:01;99914.41;;;10.72;100.00
7309;BME280;3695;53.330;9.876;2023-03-23T06:49:29;99887.88;;;10.75;100.00
7309;BME280;3695;53.330;9.876;2023-03-23T06:51:56;99845.44;;;10.80;100.00
7309;BME280;3695;53.330;9.876;2023-03-23T06:54:25;99947.03;;;10.78;100.00
7309;BME280;3695;53.330;9.876;2023-03-23T06:56:52;99956.41;;;10.87;100.00
7309;BME280;3695;53.330;9.876;2023-03-23T06:59:19;100108.22;;;10.87;100.00
7309;BME280;3695;53.330;9.876;2023-03-23T07:01:45;100209.25;;;11.06;100.00
7309;BME280;3695;53.330;9.876;2023-03-23T07:04:13;100332.34;;;11.04;100.00
7309;BME280;3695;53.330;9.876;2023-03-23T07:06:42;100466.66;;;11.07;100.00
7309;BME280;3695;53.330;9.876;2023-03-23T07:09:09;100490.59;;;11.10;100.00
7309;BME280;3695;53.330;9.876;2023-03-23T07:11:35;100606.69;;;11.20;100.00
7309;BME280;3695;53.330;9.876;2023-03-23T07:14:02;100756.88;;;11.25;100.00
7309;BME280;3695;53.330;9.876;2023-03-23T07:16:29;100892.47;;;11.32;100.00
7309;BME280;3695;53.330;9.876;2023-03-23T07:18:56;101011.84;;;11.32;100.00
7309;BME280;3695;53.330;9.876;2023-03-23T07:21:22;101115.38;;;11.42;100.00
7309;BME280;3695;53.330;9.876;2023-03-23T07:23:50;101158.13;;;11.47;100.00
7309;BME280;3695;53.330;9.876;2023-03-23T07:26:16;101223.50;;;11.45;100.00
7309;BME280;3695;53.330;9.876;2023-03-23T07:28:43;101280.66;;;11.57;100.00
7309;BME280;3695;53.330;9.876;2023-03-23T07:31:11;101341.25;;;11.51;100.00
7309;BME280;3695;53.330;9.876;2023-03-23T07:33:37;101386.56;;;11.44;100.00
7309;BME280;3695;53.330;9.876;2023-03-23T07:36:05;101414.75;;;11.43;100.00
7309;BME280;3695;53.330;9.876;2023-03-23T07:38:32;101437.72;;;11.47;100.00
7309;BME280;3695;53.330;9.876;2023-03-23T07:41:00;101476.13;;;11.44;100.00
7309;BME280;3695;53.330;9.876;2023-03-23T07:43:27;101467.78;;;11.52;100.00
7309;BME280;3695;53.330;9.876;2023-03-23T07:45:53;101522.09;;;11.72;100.00
7309;BME280;3695;53.330;9.876;2023-03-23T07:48:20;101523.00;;;11.85;100.00
7309;BME280;3695;53.330;9.876;2023-03-23T07:50:46;101519.63;;;11.96;100.00
7309;BME280;3695;53.330;9.876;2023-03-23T07:53:13;101475.31;;;12.03;100.00
7309;BME280;3695;53.330;9.876;2023-03-23T07:55:40;101499.97;;;12.14;100.00
7309;BME280;3695;53.330;9.876;2023-03-23T07:58:07;101500.38;;;12.31;100.00
7309;BME280;3695;53.330;9.876;2023-03-23T08:00:34;101462.31;;;12.31;100.00
7309;BME280;3695;53.330;9.876;2023-03-23T08:03:01;101468.81;;;12.30;100.00
7309;BME280;3695;53.330;9.876;2023-03-23T08:05:28;101464.41;;;12.29;100.00
7309;BME280;3695;53.330;9.876;2023-03-23T08:07:54;101456.44;;;12.41;100.00
7309;BME280;3695;53.330;9.876;2023-03-23T08:10:22;101477.75;;;12.50;100.00
7309;BME280;3695;53.330;9.876;2023-03-23T08:12:51;101429.84;;;12.49;100.00
7309;BME280;3695;53.330;9.876;2023-03-23T08:15:19;101317.13;;;12.45;100.00
7309;BME280;3695;53.330;9.876;2023-03-23T08:17:50;101292.31;;;12.35;100.00
7309;BME280;3695;53.330;9.876;2023-03-23T08:20:17;101362.88;;;12.10;100.00
7309;BME280;3695;53.330;9.876;2023-03-23T08:22:48;101394.25;;;12.00;100.00
7309;BME280;3695;53.330;9.876;2023-03-23T08:25:15;101397.19;;;11.91;100.00
7309;BME280;3695;53.330;9.876;2023-03-23T08:27:43;101403.69;;;11.90;100.00
7309;BME280;3695;53.330;9.876;2023-03-23T08:30:11;101419.09;;;11.70;100.00
7309;BME280;3695;53.330;9.876;2023-03-23T08:32:40;101454.00;;;11.66;100.00
7309;BME280;3695;53.330;9.876;2023-03-23T08:35:08;101474.81;;;11.26;100.00
7309;BME280;3695;53.330;9.876;2023-03-23T08:37:37;101462.28;;;10.51;100.00
7309;BME280;3695;53.330;9.876;2023-03-23T08:40:04;101444.53;;;10.49;100.00
7309;BME280;3695;53.330;9.876;2023-03-23T08:42:34;101510.44;;;10.49;100.00
7309;BME280;3695;53.330;9.876;2023-03-23T08:45:01;101540.69;;;10.53;100.00
7309;BME280;3695;53.330;9.876;2023-03-23T08:47:28;101547.16;;;10.58;100.00
7309;BME280;3695;53.330;9.876;2023-03-23T08:49:56;101571.41;;;10.66;100.00
7309;BME280;3695;53.330;9.876;2023-03-23T08:52:22;101614.84;;;10.80;100.00
7309;BME280;3695;53.330;9.876;2023-03-23T08:54:48;101648.84;;;10.76;100.00
7309;BME280;3695;53.330;9.876;2023-03-23T08:57:15;101598.19;;;10.48;100.00
7309;BME280;3695;53.330;9.876;2023-03-23T08:59:43;101616.16;;;10.56;100.00
7309;BME280;3695;53.330;9.876;2023-03-23T09:02:10;101656.84;;;10.56;100.00
7309;BME280;3695;53.330;9.876;2023-03-23T09:04:38;101648.91;;;10.54;100.00
7309;BME280;3695;53.330;9.876;2023-03-23T09:07:08;101660.66;;;10.68;100.00
7309;BME280;3695;53.330;9.876;2023-03-23T09:09:36;101676.16;;;10.74;100.00
7309;BME280;3695;53.330;9.876;2023-03-23T09:12:04;101699.31;;;10.77;100.00
7309;BME280;3695;53.330;9.876;2023-03-23T09:14:31;101670.63;;;10.61;100.00
7309;BME280;3695;53.330;9.876;2023-03-23T09:16:57;101669.13;;;10.86;100.00
7309;BME280;3695;53.330;9.876;2023-03-23T09:19:24;101642.00;;;10.86;100.00
7309;BME280;3695;53.330;9.876;2023-03-23T09:21:50;101636.78;;;10.85;100.00
7309;BME280;3695;53.330;9.876;2023-03-23T09:24:18;101670.03;;;10.93;100.00
7309;BME280;3695;53.330;9.876;2023-03-23T09:26:44;101691.13;;;10.98;100.00
7309;BME280;3695;53.330;9.876;2023-03-23T09:29:12;101664.41;;;10.95;100.00
7309;BME280;3695;53.330;9.876;2023-03-23T09:31:38;101705.78;;;11.03;100.00
7309;BME280;3695;53.330;9.876;2023-03-23T09:34:08;101732.00;;;11.24;100.00
7309;BME280;3695;53.330;9.876;2023-03-23T09:36:35;101740.53;;;11.21;100.00
7309;BME280;3695;53.330;9.876;2023-03-23T09:39:02;101716.53;;;11.25;100.00
7309;BME280;3695;53.330;9.876;2023-03-23T09:41:50;101727.28;;;11.05;100.00
7309;BME280;3695;53.330;9.876;2023-03-23T09:44:24;101745.78;;;11.29;100.00
7309;BME280;3695;53.330;9.876;2023-03-23T09:46:59;101730.56;;;11.28;100.00
7309;BME280;3695;53.330;9.876;2023-03-23T09:49:32;101733.28;;;11.35;100.00
7309;BME280;3695;53.330;9.876;2023-03-23T09:52:02;101804.88;;;11.62;100.00
7309;BME280;3695;53.330;9.876;2023-03-23T09:54:34;101800.31;;;11.69;100.00
7309;BME280;3695;53.330;9.876;2023-03-23T09:57:05;101711.97;;;11.66;100.00
7309;BME280;3695;53.330;9.876;2023-03-23T09:59:40;101769.81;;;11.67;100.00
7309;BME280;3695;53.330;9.876;2023-03-23T10:02:12;101747.88;;;11.62;100.00
7309;BME280;3695;53.330;9.876;2023-03-23T10:04:44;101725.06;;;11.56;100.00
7309;BME280;3695;53.330;9.876;2023-03-23T10:07:14;101705.47;;;11.61;100.00
7309;BME280;3695;53.330;9.876;2023-03-23T10:09:42;101735.75;;;11.64;100.00
7309;BME280;3695;53.330;9.876;2023-03-23T10:12:21;101694.63;;;11.67;100.00
7309;BME280;3695;53.330;9.876;2023-03-23T10:14:59;101725.56;;;11.73;100.00
7309;BME280;3695;53.330;9.876;2023-03-23T10:17:30;101749.38;;;11.71;100.00
7309;BME280;3695;53.330;9.876;2023-03-23T10:20:13;101690.44;;;11.65;100.00
7309;BME280;3695;53.330;9.876;2023-03-23T10:22:47;101684.59;;;11.68;100.00
7309;BME280;3695;53.330;9.876;2023-03-23T10:25:18;101750.88;;;11.80;100.00
7309;BME280;3695;53.330;9.876;2023-03-23T10:27:50;101740.66;;;11.82;100.00
7309;BME280;3695;53.330;9.876;2023-03-23T10:30:22;101775.84;;;11.97;100.00
7309;BME280;3695;53.330;9.876;2023-03-23T10:32:53;101701.00;;;11.88;100.00
7309;BME280;3695;53.330;9.876;2023-03-23T10:35:25;101706.00;;;11.84;100.00
7309;BME280;3695;53.330;9.876;2023-03-23T10:37:56;101634.47;;;11.77;100.00
7309;BME280;3695;53.330;9.876;2023-03-23T10:40:27;101575.63;;;11.84;100.00
7309;BME280;3695;53.330;9.876;2023-03-23T10:42:57;101496.44;;;12.01;100.00
7309;BME280;3695;53.330;9.876;2023-03-23T10:45:26;101418.50;;;11.88;100.00
7309;BME280;3695;53.330;9.876;2023-03-23T10:47:56;101424.59;;;11.83;100.00
7309;BME280;3695;53.330;9.876;2023-03-23T10:50:32;101404.28;;;11.79;100.00
7309;BME280;3695;53.330;9.876;2023-03-23T10:53:00;101377.75;;;11.75;100.00
7309;BME280;3695;53.330;9.876;2023-03-23T10:55:38;101428.06;;;12.10;100.00
7309;BME280;3695;53.330;9.876;2023-03-23T10:58:08;101372.41;;;12.26;100.00
7309;BME280;3695;53.330;9.876;2023-03-23T11:00:41;101342.81;;;12.05;100.00
7309;BME280;3695;53.330;9.876;2023-03-23T11:03:24;101331.16;;;11.97;100.00
7309;BME280;3695;53.330;9.876;2023-03-23T11:05:53;101301.63;;;12.08;100.00
7309;BME280;3695;53.330;9.876;2023-03-23T11:08:23;101283.13;;;11.85;100.00
7309;BME280;3695;53.330;9.876;2023-03-23T11:10:52;101244.91;;;11.86;100.00
7309;BME280;3695;53.330;9.876;2023-03-23T11:13:22;101240.50;;;11.79;100.00
7309;BME280;3695;53.330;9.876;2023-03-23T11:15:50;101262.16;;;12.05;100.00
7309;BME280;3695;53.330;9.876;2023-03-23T11:18:20;101204.84;;;12.13;100.00
7309;BME280;3695;53.330;9.876;2023-03-23T11:20:49;101157.09;;;12.24;100.00
7309;BME280;3695;53.330;9.876;2023-03-23T11:23:21;101195.16;;;12.24;100.00
7309;BME280;3695;53.330;9.876;2023-03-23T11:25:52;101146.72;;;12.14;100.00
7309;BME280;3695;53.330;9.876;2023-03-23T11:28:21;101077.53;;;12.17;100.00
7309;BME280;3695;53.330;9.876;2023-03-23T11:30:48;101019.38;;;12.00;100.00
7309;BME280;3695;53.330;9.876;2023-03-23T11:33:15;101020.13;;;12.07;100.00
7309;BME280;3695;53.330;9.876;2023-03-23T11:35:44;101011.38;;;12.05;100.00
7309;BME280;3695;53.330;9.876;2023-03-23T11:38:17;101039.19;;;12.25;100.00
7309;BME280;3695;53.330;9.876;2023-03-23T11:40:47;100909.81;;;12.06;100.00
7309;BME280;3695;53.330;9.876;2023-03-23T11:43:18;100919.84;;;12.05;100.00
7309;BME280;3695;53.330;9.876;2023-03-23T11:45:49;100892.81;;;11.92;100.00
7309;BME280;3695;53.330;9.876;2023-03-23T11:48:26;100898.84;;;11.69;100.00
7309;BME280;3695;53.330;9.876;2023-03-23T11:50:58;100960.19;;;11.77;100.00
7309;BME280;3695;53.330;9.876;2023-03-23T11:53:32;100891.38;;;11.64;100.00
7309;BME280;3695;53.330;9.876;2023-03-23T11:56:08;101030.28;;;11.93;100.00
7309;BME280;3695;53.330;9.876;2023-03-23T11:58:37;100965.66;;;12.02;100.00
7309;BME280;3695;53.330;9.876;2023-03-23T12:01:12;100939.47;;;12.07;100.00
7309;BME280;3695;53.330;9.876;2023-03-23T12:03:56;100901.81;;;11.92;100.00
7309;BME280;3695;53.330;9.876;2023-03-23T12:06:32;100976.47;;;11.83;100.00
7309;BME280;3695;53.330;9.876;2023-03-23T12:09:09;101167.81;;;11.87;100.00
7309;BME280;3695;53.330;9.876;2023-03-23T12:11:49;101127.91;;;11.88;100.00
7309;BME280;3695;53.330;9.876;2023-03-23T12:14:23;101073.41;;;11.83;100.00
7309;BME280;3695;53.330;9.876;2023-03-23T12:17:05;101121.88;;;11.79;100.00
7309;BME280;3695;53.330;9.876;2023-03-23T12:19:39;101157.28;;;11.97;100.00
7309;BME280;3695;53.330;9.876;2023-03-23T12:22:15;101114.22;;;12.01;100.00
7309;BME280;3695;53.330;9.876;2023-03-23T12:24:56;101145.41;;;12.23;100.00
7309;BME280;3695;53.330;9.876;2023-03-23T12:27:31;100955.50;;;11.90;100.00
7309;BME280;3695;53.330;9.876;2023-03-23T12:30:14;101137.97;;;12.12;100.00
7309;BME280;3695;53.330;9.876;2023-03-23T12:32:58;101160.00;;;12.29;100.00
7309;BME280;3695;53.330;9.876;2023-03-23T12:35:36;101103.88;;;12.41;100.00
7309;BME280;3695;53.330;9.876;2023-03-23T12:38:27;101085.91;;;12.40;100.00
7309;BME280;3695;53.330;9.876;2023-03-23T12:41:04;101068.47;;;12.23;100.00
7309;BME280;3695;53.330;9.876;2023-03-23T12:43:39;101052.53;;;12.33;100.00
7309;BME280;3695;53.330;9.876;2023-03-23T12:46:22;101138.81;;;12.63;100.00
7309;BME280;3695;53.330;9.876;2023-03-23T12:48:56;100988.63;;;12.24;100.00
7309;BME280;3695;53.330;9.876;2023-03-23T12:51:31;101027.03;;;12.27;100.00
7309;BME280;3695;53.330;9.876;2023-03-23T12:54:07;101040.91;;;12.44;100.00
7309;BME280;3695;53.330;9.876;2023-03-23T12:56:38;101113.00;;;12.72;100.00
7309;BME280;3695;53.330;9.876;2023-03-23T12:59:10;101089.91;;;12.81;100.00
7309;BME280;3695;53.330;9.876;2023-03-23T13:01:41;100894.97;;;12.75;100.00
7309;BME280;3695;53.330;9.876;2023-03-23T13:04:12;100994.34;;;12.77;100.00
7309;BME280;3695;53.330;9.876;2023-03-23T13:06:42;101020.63;;;12.83;100.00
7309;BME280;3695;53.330;9.876;2023-03-23T13:09:15;101064.38;;;13.00;100.00
7309;BME280;3695;53.330;9.876;2023-03-23T13:11:43;101037.16;;;13.00;100.00
7309;BME280;3695;53.330;9.876;2023-03-23T13:14:31;100908.91;;;12.97;100.00